sensor_id;sensor_type;location;lat;lon;timestamp;temperature;humidity
22680;DHT22;11507;44.858;10.374;2023-04-29T00:00:11;13.60;99.90
22680;DHT22;11507;44.858;10.374;2023-04-29T00:02:38;13.70;99.90
22680;DHT22;11507;44.858;10.374;2023-04-29T00:05:09;13.70;99.90
22680;DHT22;11507;44.858;10.374;2023-04-29T00:07:35;13.70;99.90
22680;DHT22;11507;44.858;10.374;2023-04-29T00:10:01;13.70;99.90
22680;DHT22;11507;44.858;10.374;2023-04-29T00:12:27;13.60;99.90
22680;DHT22;11507;44.858;10.374;2023-04-29T00:14:54;13.60;99.90
22680;DHT22;11507;44.858;10.374;2023-04-29T00:17:20;13.60;99.90
22680;DHT22;11507;44.858;10.374;2023-04-29T00:19:47;13.60;99.90
22680;DHT22;11507;44.858;10.374;2023-04-29T00:22:12;13.60;99.90
22680;DHT22;11507;44.858;10.374;2023-04-29T00:24:38;13.60;99.90
22680;DHT22;11507;44.858;10.374;2023-04-29T00:27:04;13.60;99.90
22680;DHT22;11507;44.858;10.374;2023-04-29T00:29:31;13.70;99.90
22680;DHT22;11507;44.858;10.374;2023-04-29T00:31:57;13.70;99.90
22680;DHT22;11507;44.858;10.374;2023-04-29T00:34:23;13.60;99.90
22680;DHT22;11507;44.858;10.374;2023-04-29T00:36:49;13.60;99.90
22680;DHT22;11507;44.858;10.374;2023-04-29T00:39:16;13.50;99.90
22680;DHT22;11507;44.858;10.374;2023-04-29T00:41:44;13.50;99.90
22680;DHT22;11507;44.858;10.374;2023-04-29T00:44:10;13.50;99.90
22680;DHT22;11507;44.858;10.374;2023-04-29T00:46:36;13.60;99.90
22680;DHT22;11507;44.858;10.374;2023-04-29T00:49:02;13.70;99.90
22680;DHT22;11507;44.858;10.374;2023-04-29T00:51:30;13.80;99.90
22680;DHT22;11507;44.858;10.374;2023-04-29T00:53:56;13.70;99.90
22680;DHT22;11507;44.858;10.374;2023-04-29T00:56:22;13.70;99.90
22680;DHT22;11507;44.858;10.374;2023-04-29T00:58:47;13.60;99.90
22680;DHT22;11507;44.858;10.374;2023-04-29T01:01:15;13.50;99.90
22680;DHT22;11507;44.858;10.374;2023-04-29T01:03:42;13.50;99.90
22680;DHT22;11507;44.858;10.374;2023-04-29T01:06:32;13.40;99.90
22680;DHT22;11507;44.858;10.374;2023-04-29T01:11:33;13.40;99.90
22680;DHT22;11507;44.858;10.374;2023-04-29T01:14:00;13.50;99.90
22680;DHT22;11507;44.858;10.374;2023-04-29T01:16:48;13.50;99.90
22680;DHT22;11507;44.858;10.374;2023-04-29T01:19:43;13.40;99.90
22680;DHT22;11507;44.858;10.374;2023-04-29T01:22:10;13.40;99.90
22680;DHT22;11507;44.858;10.374;2023-04-29T01:24:39;13.50;99.90
22680;DHT22;11507;44.858;10.374;2023-04-29T01:33:39;13.50;99.90
22680;DHT22;11507;44.858;10.374;2023-04-29T01:36:32;13.40;99.90
22680;DHT22;11507;44.858;10.374;2023-04-29T01:39:21;13.40;99.90
22680;DHT22;11507;44.858;10.374;2023-04-29T01:42:04;13.30;99.90
22680;DHT22;11507;44.858;10.374;2023-04-29T01:44:33;13.20;99.90
22680;DHT22;11507;44.858;10.374;2023-04-29T01:47:00;13.10;99.90
22680;DHT22;11507;44.858;10.374;2023-04-29T01:49:35;13.20;99.90
22680;DHT22;11507;44.858;10.374;2023-04-29T01:52:02;13.20;99.90
22680;DHT22;11507;44.858;10.374;2023-04-29T01:54:29;13.10;99.90
22680;DHT22;11507;44.858;10.374;2023-04-29T01:56:56;13.10;99.90
22680;DHT22;11507;44.858;10.374;2023-04-29T01:59:45;13.10;99.90
22680;DHT22;11507;44.858;10.374;2023-04-29T02:02:34;13.00;99.90
22680;DHT22;11507;44.858;10.374;2023-04-29T02:05:10;13.00;99.90
22680;DHT22;11507;44.858;10.374;2023-04-29T02:07:40;13.00;99.90
22680;DHT22;11507;44.858;10.374;2023-04-29T02:10:07;12.90;99.90
22680;DHT22;11507;44.858;10.374;2023-04-29T02:12:39;12.80;99.90
22680;DHT22;11507;44.858;10.374;2023-04-29T02:15:06;12.70;99.90
22680;DHT22;11507;44.858;10.374;2023-04-29T02:17:33;12.70;99.90
22680;DHT22;11507;44.858;10.374;2023-04-29T02:20:00;12.60;99.90
22680;DHT22;11507;44.858;10.374;2023-04-29T02:22:25;12.50;99.90
22680;DHT22;11507;44.858;10.374;2023-04-29T02:24:56;12.50;99.90
22680;DHT22;11507;44.858;10.374;2023-04-29T02:27:22;12.40;99.90
22680;DHT22;11507;44.858;10.374;2023-04-29T02:29:48;12.40;99.90
22680;DHT22;11507;44.858;10.374;2023-04-29T02:32:15;12.40;99.90
22680;DHT22;11507;44.858;10.374;2023-04-29T02:34:44;12.40;99.90
22680;DHT22;11507;44.858;10.374;2023-04-29T02:37:10;12.40;99.90
22680;DHT22;11507;44.858;10.374;2023-04-29T02:39:39;12.30;99.90
22680;DHT22;11507;44.858;10.374;2023-04-29T02:42:05;12.30;99.90
22680;DHT22;11507;44.858;10.374;2023-04-29T02:44:35;12.30;99.90
22680;DHT22;11507;44.858;10.374;2023-04-29T02:47:00;12.30;99.90
22680;DHT22;11507;44.858;10.374;2023-04-29T02:49:27;12.30;99.90
22680;DHT22;11507;44.858;10.374;2023-04-29T02:51:53;12.30;99.90
22680;DHT22;11507;44.858;10.374;2023-04-29T02:54:20;12.30;99.90
22680;DHT22;11507;44.858;10.374;2023-04-29T02:56:47;12.30;99.90
22680;DHT22;11507;44.858;10.374;2023-04-29T02:59:13;12.20;99.90
22680;DHT22;11507;44.858;10.374;2023-04-29T03:01:39;12.20;99.90
22680;DHT22;11507;44.858;10.374;2023-04-29T03:04:05;12.10;99.90
22680;DHT22;11507;44.858;10.374;2023-04-29T03:06:31;12.10;99.90
22680;DHT22;11507;44.858;10.374;2023-04-29T03:08:57;12.00;99.90
22680;DHT22;11507;44.858;10.374;2023-04-29T03:11:23;12.00;99.90
22680;DHT22;11507;44.858;10.374;2023-04-29T03:13:49;11.90;99.90
22680;DHT22;11507;44.858;10.374;2023-04-29T03:16:15;11.90;99.90
22680;DHT22;11507;44.858;10.374;2023-04-29T03:18:42;11.90;99.90
22680;DHT22;11507;44.858;10.374;2023-04-29T03:21:08;12.00;99.90
22680;DHT22;11507;44.858;10.374;2023-04-29T03:23:34;12.00;99.90
22680;DHT22;11507;44.858;10.374;2023-04-29T03:26:02;12.00;99.90
22680;DHT22;11507;44.858;10.374;2023-04-29T03:28:28;12.00;99.90
22680;DHT22;11507;44.858;10.374;2023-04-29T03:30:54;12.00;99.90
22680;DHT22;11507;44.858;10.374;2023-04-29T03:33:22;12.10;99.90
22680;DHT22;11507;44.858;10.374;2023-04-29T03:35:48;12.10;99.90
22680;DHT22;11507;44.858;10.374;2023-04-29T03:38:33;12.10;99.90
22680;DHT22;11507;44.858;10.374;2023-04-29T03:40:59;12.10;99.90
22680;DHT22;11507;44.858;10.374;2023-04-29T03:43:25;12.10;99.90
22680;DHT22;11507;44.858;10.374;2023-04-29T03:45:51;12.10;99.90
22680;DHT22;11507;44.858;10.374;2023-04-29T03:48:20;12.00;99.90
22680;DHT22;11507;44.858;10.374;2023-04-29T03:50:46;11.90;99.90
22680;DHT22;11507;44.858;10.374;2023-04-29T03:53:12;11.90;99.90
22680;DHT22;11507;44.858;10.374;2023-04-29T03:55:38;11.80;99.90
22680;DHT22;11507;44.858;10.374;2023-04-29T03:58:04;11.90;99.90
22680;DHT22;11507;44.858;10.374;2023-04-29T04:00:31;11.80;99.90
22680;DHT22;11507;44.858;10.374;2023-04-29T04:02:58;11.80;99.90
22680;DHT22;11507;44.858;10.374;2023-04-29T04:05:24;11.70;99.90
22680;DHT22;11507;44.858;10.374;2023-04-29T04:08:00;11.60;99.90
22680;DHT22;11507;44.858;10.374;2023-04-29T04:10:44;11.70;99.90
22680;DHT22;11507;44.858;10.374;2023-04-29T04:13:22;11.70;99.90
22680;DHT22;11507;44.858;10.374;2023-04-29T04:15:49;11.60;99.90
22680;DHT22;11507;44.858;10.374;2023-04-29T04:18:16;11.70;99.90
22680;DHT22;11507;44.858;10.374;2023-04-29T04:20:42;11.70;99.90
22680;DHT22;11507;44.858;10.374;2023-04-29T04:23:08;11.70;99.90
22680;DHT22;11507;44.858;10.374;2023-04-29T04:25:34;11.70;99.90
22680;DHT22;11507;44.858;10.374;2023-04-29T04:28:22;11.70;99.90
22680;DHT22;11507;44.858;10.374;2023-04-29T04:31:11;11.80;99.90
22680;DHT22;11507;44.858;10.374;2023-04-29T04:33:40;11.80;99.90
22680;DHT22;11507;44.858;10.374;2023-04-29T04:36:06;11.80;99.90
22680;DHT22;11507;44.858;10.374;2023-04-29T04:38:33;11.90;99.90
22680;DHT22;11507;44.858;10.374;2023-04-29T04:41:07;11.90;99.90
22680;DHT22;11507;44.858;10.374;2023-04-29T04:43:37;12.00;99.90
22680;DHT22;11507;44.858;10.374;2023-04-29T04:46:14;12.00;99.90
22680;DHT22;11507;44.858;10.374;2023-04-29T04:49:00;12.00;99.90
22680;DHT22;11507;44.858;10.374;2023-04-29T04:51:28;12.00;99.90
22680;DHT22;11507;44.858;10.374;2023-04-29T04:53:55;12.00;99.90
22680;DHT22;11507;44.858;10.374;2023-04-29T04:56:23;12.10;99.90
22680;DHT22;11507;44.858;10.374;2023-04-29T04:58:51;12.10;99.90
22680;DHT22;11507;44.858;10.374;2023-04-29T05:01:18;12.10;99.90
22680;DHT22;11507;44.858;10.374;2023-04-29T05:03:44;12.10;99.90
22680;DHT22;11507;44.858;10.374;2023-04-29T05:06:10;12.20;99.90
22680;DHT22;11507;44.858;10.374;2023-04-29T05:08:39;12.30;99.90
22680;DHT22;11507;44.858;10.374;2023-04-29T05:11:17;12.40;99.90
22680;DHT22;11507;44.858;10.374;2023-04-29T05:13:46;12.40;99.90
22680;DHT22;11507;44.858;10.374;2023-04-29T05:16:13;12.50;99.90
22680;DHT22;11507;44.858;10.374;2023-04-29T05:18:44;12.50;99.90
22680;DHT22;11507;44.858;10.374;2023-04-29T05:21:13;12.60;99.90
22680;DHT22;11507;44.858;10.374;2023-04-29T05:23:39;12.60;99.90
22680;DHT22;11507;44.858;10.374;2023-04-29T05:26:08;12.70;99.90
22680;DHT22;11507;44.858;10.374;2023-04-29T05:28:38;12.80;99.90
22680;DHT22;11507;44.858;10.374;2023-04-29T05:31:05;12.90;99.90
22680;DHT22;11507;44.858;10.374;2023-04-29T05:33:35;13.00;99.90
22680;DHT22;11507;44.858;10.374;2023-04-29T05:36:02;13.10;99.90
22680;DHT22;11507;44.858;10.374;2023-04-29T05:38:29;13.20;99.90
22680;DHT22;11507;44.858;10.374;2023-04-29T05:41:02;13.30;99.90
22680;DHT22;11507;44.858;10.374;2023-04-29T05:43:29;13.40;99.90
22680;DHT22;11507;44.858;10.374;2023-04-29T05:45:57;13.50;99.90
22680;DHT22;11507;44.858;10.374;2023-04-29T05:48:23;13.60;99.90
22680;DHT22;11507;44.858;10.374;2023-04-29T05:50:50;13.70;99.90
22680;DHT22;11507;44.858;10.374;2023-04-29T05:53:16;13.80;99.90
22680;DHT22;11507;44.858;10.374;2023-04-29T05:55:42;13.90;99.90
22680;DHT22;11507;44.858;10.374;2023-04-29T05:58:12;14.00;99.90
22680;DHT22;11507;44.858;10.374;2023-04-29T06:00:38;14.10;99.90
22680;DHT22;11507;44.858;10.374;2023-04-29T06:03:11;14.20;99.90
22680;DHT22;11507;44.858;10.374;2023-04-29T06:05:37;14.30;99.90
22680;DHT22;11507;44.858;10.374;2023-04-29T06:08:17;14.40;99.90
22680;DHT22;11507;44.858;10.374;2023-04-29T06:10:51;14.50;99.90
22680;DHT22;11507;44.858;10.374;2023-04-29T06:13:18;14.70;99.90
22680;DHT22;11507;44.858;10.374;2023-04-29T06:15:45;14.70;99.90
22680;DHT22;11507;44.858;10.374;2023-04-29T06:18:14;14.80;99.90
22680;DHT22;11507;44.858;10.374;2023-04-29T06:20:44;14.90;99.90
22680;DHT22;11507;44.858;10.374;2023-04-29T06:23:12;15.00;99.90
22680;DHT22;11507;44.858;10.374;2023-04-29T06:25:39;15.00;99.90
22680;DHT22;11507;44.858;10.374;2023-04-29T06:28:06;15.10;99.90
22680;DHT22;11507;44.858;10.374;2023-04-29T06:30:34;15.10;99.90
22680;DHT22;11507;44.858;10.374;2023-04-29T06:33:11;15.20;99.90
22680;DHT22;11507;44.858;10.374;2023-04-29T06:35:39;15.30;99.90
22680;DHT22;11507;44.858;10.374;2023-04-29T06:38:22;15.30;99.90
22680;DHT22;11507;44.858;10.374;2023-04-29T06:41:25;15.50;99.90
22680;DHT22;11507;44.858;10.374;2023-04-29T06:44:24;15.70;99.90
22680;DHT22;11507;44.858;10.374;2023-04-29T06:47:03;15.90;99.90
22680;DHT22;11507;44.858;10.374;2023-04-29T06:49:44;16.10;99.90
22680;DHT22;11507;44.858;10.374;2023-04-29T06:52:22;16.30;99.90
22680;DHT22;11507;44.858;10.374;2023-04-29T06:54:50;16.30;99.90
22680;DHT22;11507;44.858;10.374;2023-04-29T06:57:21;16.50;99.90
22680;DHT22;11507;44.858;10.374;2023-04-29T07:00:09;16.60;99.90
22680;DHT22;11507;44.858;10.374;2023-04-29T07:02:40;16.80;99.90
22680;DHT22;11507;44.858;10.374;2023-04-29T07:05:08;17.10;99.90
22680;DHT22;11507;44.858;10.374;2023-04-29T07:07:36;17.20;99.90
22680;DHT22;11507;44.858;10.374;2023-04-29T07:10:02;17.30;99.90
22680;DHT22;11507;44.858;10.374;2023-04-29T07:12:30;17.40;99.90
22680;DHT22;11507;44.858;10.374;2023-04-29T07:14:59;17.60;99.90
22680;DHT22;11507;44.858;10.374;2023-04-29T07:17:29;17.70;99.90
22680;DHT22;11507;44.858;10.374;2023-04-29T07:19:57;17.70;99.90
22680;DHT22;11507;44.858;10.374;2023-04-29T07:22:24;17.70;99.90
22680;DHT22;11507;44.858;10.374;2023-04-29T07:24:53;17.80;99.90
22680;DHT22;11507;44.858;10.374;2023-04-29T07:27:22;17.80;99.90
22680;DHT22;11507;44.858;10.374;2023-04-29T07:29:51;17.90;99.90
22680;DHT22;11507;44.858;10.374;2023-04-29T07:32:20;17.90;99.90
22680;DHT22;11507;44.858;10.374;2023-04-29T07:34:46;17.80;99.90
22680;DHT22;11507;44.858;10.374;2023-04-29T07:37:12;17.80;99.90
22680;DHT22;11507;44.858;10.374;2023-04-29T07:39:40;17.70;99.90
22680;DHT22;11507;44.858;10.374;2023-04-29T07:42:09;17.70;99.90
22680;DHT22;11507;44.858;10.374;2023-04-29T07:44:36;17.60;99.90
22680;DHT22;11507;44.858;10.374;2023-04-29T07:47:02;17.60;99.90
22680;DHT22;11507;44.858;10.374;2023-04-29T07:49:29;17.60;99.90
22680;DHT22;11507;44.858;10.374;2023-04-29T07:51:55;17.60;99.90
22680;DHT22;11507;44.858;10.374;2023-04-29T07:54:21;17.50;99.90
22680;DHT22;11507;44.858;10.374;2023-04-29T07:56:51;17.40;99.90
22680;DHT22;11507;44.858;10.374;2023-04-29T07:59:19;17.30;99.90
22680;DHT22;11507;44.858;10.374;2023-04-29T08:01:46;17.20;99.90
22680;DHT22;11507;44.858;10.374;2023-04-29T08:04:18;17.10;99.90
22680;DHT22;11507;44.858;10.374;2023-04-29T08:06:48;17.10;99.90
22680;DHT22;11507;44.858;10.374;2023-04-29T08:09:16;17.00;99.90
22680;DHT22;11507;44.858;10.374;2023-04-29T08:11:42;17.00;99.90
22680;DHT22;11507;44.858;10.374;2023-04-29T08:14:14;17.00;99.90
22680;DHT22;11507;44.858;10.374;2023-04-29T08:16:41;17.00;99.90
22680;DHT22;11507;44.858;10.374;2023-04-29T08:19:08;17.00;99.90
22680;DHT22;11507;44.858;10.374;2023-04-29T08:21:34;17.00;99.90
22680;DHT22;11507;44.858;10.374;2023-04-29T08:24:01;17.10;99.90
22680;DHT22;11507;44.858;10.374;2023-04-29T08:26:27;17.10;99.90
22680;DHT22;11507;44.858;10.374;2023-04-29T08:28:54;17.10;99.90
22680;DHT22;11507;44.858;10.374;2023-04-29T08:31:23;17.20;99.90
22680;DHT22;11507;44.858;10.374;2023-04-29T08:33:50;17.30;99.90
22680;DHT22;11507;44.858;10.374;2023-04-29T08:36:16;17.40;99.90
22680;DHT22;11507;44.858;10.374;2023-04-29T08:38:43;17.40;99.90
22680;DHT22;11507;44.858;10.374;2023-04-29T08:41:09;17.40;99.90
22680;DHT22;11507;44.858;10.374;2023-04-29T08:43:37;17.40;99.90
22680;DHT22;11507;44.858;10.374;2023-04-29T08:46:06;17.40;99.90
22680;DHT22;11507;44.858;10.374;2023-04-29T08:48:33;17.50;99.90
22680;DHT22;11507;44.858;10.374;2023-04-29T08:51:01;17.50;99.90
22680;DHT22;11507;44.858;10.374;2023-04-29T08:53:29;17.60;99.90
22680;DHT22;11507;44.858;10.374;2023-04-29T08:56:06;17.70;99.90
22680;DHT22;11507;44.858;10.374;2023-04-29T08:58:34;17.60;99.90
22680;DHT22;11507;44.858;10.374;2023-04-29T09:01:00;17.70;99.90
22680;DHT22;11507;44.858;10.374;2023-04-29T09:04:27;17.70;99.90
22680;DHT22;11507;44.858;10.374;2023-04-29T09:06:21;17.70;99.90
22680;DHT22;11507;44.858;10.374;2023-04-29T09:08:49;17.70;99.90
22680;DHT22;11507;44.858;10.374;2023-04-29T09:11:16;17.80;99.90
22680;DHT22;11507;44.858;10.374;2023-04-29T09:13:42;17.80;99.90
22680;DHT22;11507;44.858;10.374;2023-04-29T09:16:12;17.90;99.90
22680;DHT22;11507;44.858;10.374;2023-04-29T09:21:25;18.00;99.90
22680;DHT22;11507;44.858;10.374;2023-04-29T09:24:00;18.10;99.90
22680;DHT22;11507;44.858;10.374;2023-04-29T09:26:27;18.20;99.90
22680;DHT22;11507;44.858;10.374;2023-04-29T09:29:08;18.30;99.90
22680;DHT22;11507;44.858;10.374;2023-04-29T09:31:41;18.40;99.90
22680;DHT22;11507;44.858;10.374;2023-04-29T09:34:07;18.50;99.90
22680;DHT22;11507;44.858;10.374;2023-04-29T09:39:10;18.60;99.90
22680;DHT22;11507;44.858;10.374;2023-04-29T09:44:23;18.40;99.90
22680;DHT22;11507;44.858;10.374;2023-04-29T09:47:06;18.60;99.90
22680;DHT22;11507;44.858;10.374;2023-04-29T09:49:35;18.60;99.90
22680;DHT22;11507;44.858;10.374;2023-04-29T09:52:04;18.70;99.90
22680;DHT22;11507;44.858;10.374;2023-04-29T09:58:00;18.80;99.90
22680;DHT22;11507;44.858;10.374;2023-04-29T10:00:31;18.80;99.90
22680;DHT22;11507;44.858;10.374;2023-04-29T10:03:08;18.90;99.90
22680;DHT22;11507;44.858;10.374;2023-04-29T10:05:34;18.90;99.90
22680;DHT22;11507;44.858;10.374;2023-04-29T10:08:00;19.10;99.90
22680;DHT22;11507;44.858;10.374;2023-04-29T10:10:26;19.20;99.90
22680;DHT22;11507;44.858;10.374;2023-04-29T10:12:54;19.40;99.90
22680;DHT22;11507;44.858;10.374;2023-04-29T10:15:34;19.50;99.90
22680;DHT22;11507;44.858;10.374;2023-04-29T10:29:29;20.90;99.90
22680;DHT22;11507;44.858;10.374;2023-04-29T10:31:58;21.30;99.90
22680;DHT22;11507;44.858;10.374;2023-04-29T10:34:24;21.50;99.90
22680;DHT22;11507;44.858;10.374;2023-04-29T10:36:51;21.60;99.90
22680;DHT22;11507;44.858;10.374;2023-04-29T10:39:29;21.60;99.90
22680;DHT22;11507;44.858;10.374;2023-04-29T10:41:58;21.60;99.90
22680;DHT22;11507;44.858;10.374;2023-04-29T10:44:25;21.60;99.90
22680;DHT22;11507;44.858;10.374;2023-04-29T10:47:19;21.60;99.90
22680;DHT22;11507;44.858;10.374;2023-04-29T10:50:03;21.60;99.90
22680;DHT22;11507;44.858;10.374;2023-04-29T10:52:29;21.60;99.90
22680;DHT22;11507;44.858;10.374;2023-04-29T10:55:02;21.70;99.90
22680;DHT22;11507;44.858;10.374;2023-04-29T10:57:29;21.70;99.90
22680;DHT22;11507;44.858;10.374;2023-04-29T10:59:55;21.70;99.90
22680;DHT22;11507;44.858;10.374;2023-04-29T11:02:21;21.80;99.90
22680;DHT22;11507;44.858;10.374;2023-04-29T11:05:08;21.70;99.90
22680;DHT22;11507;44.858;10.374;2023-04-29T11:07:35;21.60;99.90
22680;DHT22;11507;44.858;10.374;2023-04-29T11:10:01;21.60;99.90
22680;DHT22;11507;44.858;10.374;2023-04-29T11:12:28;21.70;99.90
22680;DHT22;11507;44.858;10.374;2023-04-29T11:14:57;21.70;99.90
22680;DHT22;11507;44.858;10.374;2023-04-29T11:17:38;21.80;99.90
22680;DHT22;11507;44.858;10.374;2023-04-29T11:20:16;21.90;99.90
22680;DHT22;11507;44.858;10.374;2023-04-29T11:22:49;22.10;99.90
22680;DHT22;11507;44.858;10.374;2023-04-29T11:25:16;22.10;99.90
22680;DHT22;11507;44.858;10.374;2023-04-29T11:27:42;22.20;99.90
22680;DHT22;11507;44.858;10.374;2023-04-29T11:30:11;22.20;99.90
22680;DHT22;11507;44.858;10.374;2023-04-29T11:32:39;22.00;99.90
22680;DHT22;11507;44.858;10.374;2023-04-29T11:37:34;22.00;99.90
22680;DHT22;11507;44.858;10.374;2023-04-29T11:40:02;22.00;99.90
22680;DHT22;11507;44.858;10.374;2023-04-29T11:42:28;22.10;99.90
22680;DHT22;11507;44.858;10.374;2023-04-29T11:44:54;22.40;99.90
22680;DHT22;11507;44.858;10.374;2023-04-29T11:47:29;22.60;99.90
22680;DHT22;11507;44.858;10.374;2023-04-29T11:50:05;22.60;99.90
22680;DHT22;11507;44.858;10.374;2023-04-29T11:52:35;22.80;99.90
22680;DHT22;11507;44.858;10.374;2023-04-29T11:55:03;22.80;99.90
22680;DHT22;11507;44.858;10.374;2023-04-29T11:57:30;22.80;99.90
22680;DHT22;11507;44.858;10.374;2023-04-29T11:59:59;22.80;99.90
22680;DHT22;11507;44.858;10.374;2023-04-29T12:02:33;22.90;99.90
22680;DHT22;11507;44.858;10.374;2023-04-29T12:05:05;23.10;99.90
22680;DHT22;11507;44.858;10.374;2023-04-29T12:07:33;23.10;99.90
22680;DHT22;11507;44.858;10.374;2023-04-29T12:10:00;23.00;99.90
22680;DHT22;11507;44.858;10.374;2023-04-29T12:12:27;23.00;99.90
22680;DHT22;11507;44.858;10.374;2023-04-29T12:15:56;23.20;99.90
22680;DHT22;11507;44.858;10.374;2023-04-29T12:18:23;23.40;99.90
22680;DHT22;11507;44.858;10.374;2023-04-29T12:20:50;23.40;99.90
22680;DHT22;11507;44.858;10.374;2023-04-29T12:23:20;23.60;99.90
22680;DHT22;11507;44.858;10.374;2023-04-29T12:25:57;23.80;99.90
22680;DHT22;11507;44.858;10.374;2023-04-29T12:28:27;24.30;99.90
22680;DHT22;11507;44.858;10.374;2023-04-29T12:30:53;24.60;99.90
22680;DHT22;11507;44.858;10.374;2023-04-29T12:33:27;25.30;99.90
22680;DHT22;11507;44.858;10.374;2023-04-29T12:35:56;26.20;99.90
22680;DHT22;11507;44.858;10.374;2023-04-29T12:38:28;26.90;99.90
22680;DHT22;11507;44.858;10.374;2023-04-29T12:40:59;27.80;99.90
22680;DHT22;11507;44.858;10.374;2023-04-29T12:43:31;28.50;98.40
22680;DHT22;11507;44.858;10.374;2023-04-29T12:46:09;28.80;94.90
22680;DHT22;11507;44.858;10.374;2023-04-29T12:48:36;29.10;96.20
22680;DHT22;11507;44.858;10.374;2023-04-29T12:51:09;29.50;97.30
22680;DHT22;11507;44.858;10.374;2023-04-29T12:53:38;29.90;93.60
22680;DHT22;11507;44.858;10.374;2023-04-29T12:56:05;30.30;92.00
22680;DHT22;11507;44.858;10.374;2023-04-29T12:58:31;30.40;91.00
22680;DHT22;11507;44.858;10.374;2023-04-29T13:00:58;30.30;91.90
22680;DHT22;11507;44.858;10.374;2023-04-29T13:03:24;30.50;90.70
22680;DHT22;11507;44.858;10.374;2023-04-29T13:05:50;30.60;90.50
22680;DHT22;11507;44.858;10.374;2023-04-29T13:08:19;30.70;90.00
22680;DHT22;11507;44.858;10.374;2023-04-29T13:10:47;30.80;90.10
22680;DHT22;11507;44.858;10.374;2023-04-29T13:13:14;30.90;90.30
22680;DHT22;11507;44.858;10.374;2023-04-29T13:15:41;30.80;84.70
22680;DHT22;11507;44.858;10.374;2023-04-29T13:18:10;31.20;87.70
22680;DHT22;11507;44.858;10.374;2023-04-29T13:20:50;31.70;84.60
22680;DHT22;11507;44.858;10.374;2023-04-29T13:23:18;31.90;80.70
22680;DHT22;11507;44.858;10.374;2023-04-29T13:25:44;31.80;84.90
22680;DHT22;11507;44.858;10.374;2023-04-29T13:28:11;32.20;82.10
22680;DHT22;11507;44.858;10.374;2023-04-29T13:30:40;32.50;78.70
22680;DHT22;11507;44.858;10.374;2023-04-29T13:33:06;32.50;77.70
22680;DHT22;11507;44.858;10.374;2023-04-29T13:35:34;32.40;76.60
22680;DHT22;11507;44.858;10.374;2023-04-29T13:38:03;32.00;78.70
22680;DHT22;11507;44.858;10.374;2023-04-29T13:40:29;31.60;79.30
22680;DHT22;11507;44.858;10.374;2023-04-29T13:42:55;31.40;76.70
22680;DHT22;11507;44.858;10.374;2023-04-29T13:45:22;31.40;78.70
22680;DHT22;11507;44.858;10.374;2023-04-29T13:47:48;31.10;75.70
22680;DHT22;11507;44.858;10.374;2023-04-29T13:50:15;30.50;76.90
22680;DHT22;11507;44.858;10.374;2023-04-29T13:52:40;30.10;79.70
22680;DHT22;11507;44.858;10.374;2023-04-29T13:55:07;29.50;79.60
22680;DHT22;11507;44.858;10.374;2023-04-29T13:57:33;28.80;81.70
22680;DHT22;11507;44.858;10.374;2023-04-29T13:59:59;28.40;84.50
22680;DHT22;11507;44.858;10.374;2023-04-29T14:02:25;27.90;84.00
22680;DHT22;11507;44.858;10.374;2023-04-29T14:04:51;27.50;85.50
22680;DHT22;11507;44.858;10.374;2023-04-29T14:07:17;26.80;85.80
22680;DHT22;11507;44.858;10.374;2023-04-29T14:09:43;26.40;89.50
22680;DHT22;11507;44.858;10.374;2023-04-29T14:12:09;26.10;90.20
22680;DHT22;11507;44.858;10.374;2023-04-29T14:14:35;25.80;90.30
22680;DHT22;11507;44.858;10.374;2023-04-29T14:17:00;25.70;90.70
22680;DHT22;11507;44.858;10.374;2023-04-29T14:19:26;25.40;90.50
22680;DHT22;11507;44.858;10.374;2023-04-29T14:21:53;25.20;91.70
22680;DHT22;11507;44.858;10.374;2023-04-29T14:24:19;25.30;92.80
22680;DHT22;11507;44.858;10.374;2023-04-29T14:26:47;25.20;92.40
22680;DHT22;11507;44.858;10.374;2023-04-29T14:29:15;25.30;92.40
22680;DHT22;11507;44.858;10.374;2023-04-29T14:31:41;25.40;92.60
22680;DHT22;11507;44.858;10.374;2023-04-29T14:34:10;25.50;92.20
22680;DHT22;11507;44.858;10.374;2023-04-29T14:36:37;25.40;91.80
22680;DHT22;11507;44.858;10.374;2023-04-29T14:39:06;25.40;92.50
22680;DHT22;11507;44.858;10.374;2023-04-29T14:41:33;25.20;92.50
22680;DHT22;11507;44.858;10.374;2023-04-29T14:44:03;25.10;93.20
22680;DHT22;11507;44.858;10.374;2023-04-29T14:46:37;24.90;92.60
22680;DHT22;11507;44.858;10.374;2023-04-29T14:49:04;24.70;93.50
22680;DHT22;11507;44.858;10.374;2023-04-29T14:51:32;24.60;93.50
22680;DHT22;11507;44.858;10.374;2023-04-29T14:54:02;24.40;93.70
22680;DHT22;11507;44.858;10.374;2023-04-29T14:56:35;24.30;94.50
22680;DHT22;11507;44.858;10.374;2023-04-29T14:59:16;24.00;94.70
22680;DHT22;11507;44.858;10.374;2023-04-29T15:01:43;23.80;95.80
22680;DHT22;11507;44.858;10.374;2023-04-29T15:04:12;23.70;96.50
22680;DHT22;11507;44.858;10.374;2023-04-29T15:06:40;23.60;96.90
22680;DHT22;11507;44.858;10.374;2023-04-29T15:09:09;23.50;97.50
22680;DHT22;11507;44.858;10.374;2023-04-29T15:11:36;23.40;97.70
22680;DHT22;11507;44.858;10.374;2023-04-29T15:14:03;23.30;99.10
22680;DHT22;11507;44.858;10.374;2023-04-29T15:16:33;23.20;98.90
22680;DHT22;11507;44.858;10.374;2023-04-29T15:19:06;23.20;99.90
22680;DHT22;11507;44.858;10.374;2023-04-29T15:21:32;23.20;99.90
22680;DHT22;11507;44.858;10.374;2023-04-29T15:23:59;23.10;99.70
22680;DHT22;11507;44.858;10.374;2023-04-29T15:26:31;23.00;99.90
22680;DHT22;11507;44.858;10.374;2023-04-29T15:28:57;22.80;99.90
22680;DHT22;11507;44.858;10.374;2023-04-29T15:31:24;22.70;99.90
22680;DHT22;11507;44.858;10.374;2023-04-29T15:33:54;22.70;99.90
22680;DHT22;11507;44.858;10.374;2023-04-29T15:36:31;22.60;99.90
22680;DHT22;11507;44.858;10.374;2023-04-29T15:39:02;22.60;99.90
22680;DHT22;11507;44.858;10.374;2023-04-29T15:41:28;22.50;99.90
22680;DHT22;11507;44.858;10.374;2023-04-29T15:43:55;22.50;99.90
22680;DHT22;11507;44.858;10.374;2023-04-29T15:46:22;22.50;99.90
22680;DHT22;11507;44.858;10.374;2023-04-29T15:48:58;22.50;99.90
22680;DHT22;11507;44.858;10.374;2023-04-29T15:51:25;22.60;99.90
22680;DHT22;11507;44.858;10.374;2023-04-29T15:53:57;22.40;99.90
22680;DHT22;11507;44.858;10.374;2023-04-29T15:56:23;22.30;99.90
22680;DHT22;11507;44.858;10.374;2023-04-29T15:58:51;22.30;99.90
22680;DHT22;11507;44.858;10.374;2023-04-29T16:01:17;22.20;99.90
22680;DHT22;11507;44.858;10.374;2023-04-29T16:03:44;22.20;99.90